EWG6PR EDDS-LOWW
Flight info
| Callsign | EWG6PR |
|---|---|
| Flight time | 0h 54m |
| Altitude | 31000 |
| Route | ABTAL4B ABTAL L173 RIXED Y161 RIDAR Z98 MIQ L605 BIBAG Q104 AKIMA DCT TIVAP DCT MASUR MASUR3W |
| Aircraft | A319/M-SDE3FGHIRWY/LB1 |
Departure
| Time | 2026-04-20 17:13 |
|---|---|
| Airport | Stuttgart Airport (EDDS) |
Arrival
| Time | 2026-04-20 18:07 |
|---|---|
| Airport | Vienna International Airport (LOWW) |
| Time | Latitude | Longitude | Altitude | Speed | Heading |
|---|---|---|---|---|---|
| 2026-04-20 16:32 | 48.68995 | 9.19896 | 1308 ft | 0 kts | 344° |
| 2026-04-20 17:03 | 48.68980 | 9.19902 | 1306 ft | 4 kts | 344° |
| 2026-04-20 17:03 | 48.68960 | 9.19913 | 1305 ft | 4 kts | 310° |
| 2026-04-20 17:04 | 48.68953 | 9.19946 | 1304 ft | 4 kts | 261° |
| 2026-04-20 17:04 | 48.68961 | 9.19983 | 1303 ft | 2 kts | 239° |
| 2026-04-20 17:04 | 48.68962 | 9.19985 | 1303 ft | 1 kts | 238° |
| 2026-04-20 17:07 | 48.68960 | 9.19982 | 1303 ft | 1 kts | 238° |
| 2026-04-20 17:08 | 48.68950 | 9.19958 | 1303 ft | 4 kts | 238° |
| 2026-04-20 17:08 | 48.68934 | 9.19918 | 1303 ft | 5 kts | 238° |
| 2026-04-20 17:08 | 48.68908 | 9.19870 | 1304 ft | 7 kts | 212° |
| 2026-04-20 17:08 | 48.68854 | 9.19889 | 1300 ft | 5 kts | 158° |
| 2026-04-20 17:09 | 48.68816 | 9.19914 | 1297 ft | 5 kts | 148° |
| 2026-04-20 17:09 | 48.68778 | 9.19945 | 1294 ft | 5 kts | 160° |
| 2026-04-20 17:09 | 48.68755 | 9.19955 | 1293 ft | 3 kts | 162° |
| 2026-04-20 17:09 | 48.68718 | 9.19972 | 1291 ft | 6 kts | 163° |
| 2026-04-20 17:10 | 48.68678 | 9.19990 | 1288 ft | 0 kts | 164° |
| 2026-04-20 17:11 | 48.68655 | 9.20000 | 1287 ft | 8 kts | 164° |
| 2026-04-20 17:11 | 48.68600 | 9.20026 | 1287 ft | 8 kts | 152° |
| 2026-04-20 17:11 | 48.68587 | 9.20087 | 1283 ft | 5 kts | 74° |
| 2026-04-20 17:11 | 48.68588 | 9.20090 | 1283 ft | 0 kts | 73° |
| 2026-04-20 17:12 | 48.68588 | 9.20092 | 1283 ft | 0 kts | 73° |
| 2026-04-20 17:12 | 48.68599 | 9.20148 | 1281 ft | 14 kts | 73° |
| 2026-04-20 17:12 | 48.68674 | 9.20537 | 1273 ft | 69 kts | 73° |
| 2026-04-20 17:12 | 48.68860 | 9.21527 | 1255 ft | 126 kts | 74° |
| 2026-04-20 17:13 | 48.69153 | 9.23059 | 1297 ft | 168 kts | 76° |
| 2026-04-20 17:13 | 48.69455 | 9.24725 | 2005 ft | 161 kts | 70° |
| 2026-04-20 17:13 | 48.69750 | 9.26340 | 2675 ft | 162 kts | 68° |
| 2026-04-20 17:13 | 48.70092 | 9.28034 | 3091 ft | 176 kts | 69° |
| 2026-04-20 17:14 | 48.70473 | 9.29884 | 3582 ft | 191 kts | 69° |
| 2026-04-20 17:14 | 48.70881 | 9.31882 | 4021 ft | 210 kts | 70° |
| 2026-04-20 17:14 | 48.71319 | 9.34128 | 4524 ft | 232 kts | 71° |
| 2026-04-20 17:14 | 48.71777 | 9.36573 | 5208 ft | 251 kts | 71° |
| 2026-04-20 17:15 | 48.72258 | 9.39203 | 5969 ft | 265 kts | 72° |
| 2026-04-20 17:15 | 48.72760 | 9.41931 | 6901 ft | 273 kts | 72° |
| 2026-04-20 17:15 | 48.73271 | 9.44736 | 7764 ft | 280 kts | 72° |
| 2026-04-20 17:15 | 48.73798 | 9.47617 | 8665 ft | 286 kts | 72° |
| 2026-04-20 17:16 | 48.74341 | 9.50550 | 9562 ft | 293 kts | 72° |
| 2026-04-20 17:16 | 48.74904 | 9.53563 | 10347 ft | 301 kts | 72° |
| 2026-04-20 17:16 | 48.75489 | 9.56725 | 10796 ft | 322 kts | 72° |
| 2026-04-20 17:16 | 48.76125 | 9.60105 | 11114 ft | 344 kts | 72° |
| 2026-04-20 17:17 | 48.76786 | 9.63633 | 11795 ft | 352 kts | 72° |
| 2026-04-20 17:17 | 48.77456 | 9.67208 | 12625 ft | 354 kts | 72° |
| 2026-04-20 17:17 | 48.78132 | 9.70822 | 13468 ft | 358 kts | 72° |
| 2026-04-20 17:17 | 48.78815 | 9.74472 | 14210 ft | 362 kts | 72° |
| 2026-04-20 17:18 | 48.79502 | 9.78161 | 14896 ft | 366 kts | 72° |
| 2026-04-20 17:18 | 48.80194 | 9.81894 | 15583 ft | 370 kts | 72° |
| 2026-04-20 17:18 | 48.80883 | 9.85623 | 16259 ft | 374 kts | 72° |
| 2026-04-20 17:18 | 48.81585 | 9.89444 | 16945 ft | 378 kts | 71° |
| 2026-04-20 17:19 | 48.82294 | 9.93304 | 17634 ft | 382 kts | 71° |
| 2026-04-20 17:19 | 48.83011 | 9.97212 | 18318 ft | 387 kts | 71° |
| 2026-04-20 17:19 | 48.83734 | 10.01170 | 18888 ft | 391 kts | 71° |
| 2026-04-20 17:19 | 48.84467 | 10.05179 | 19440 ft | 397 kts | 71° |
| 2026-04-20 17:20 | 48.85062 | 10.09309 | 19957 ft | 406 kts | 79° |
| 2026-04-20 17:20 | 48.85192 | 10.13634 | 20521 ft | 415 kts | 90° |
| 2026-04-20 17:20 | 48.84886 | 10.18020 | 21085 ft | 421 kts | 96° |
| 2026-04-20 17:20 | 48.84521 | 10.22455 | 21609 ft | 426 kts | 95° |
| 2026-04-20 17:21 | 48.84154 | 10.26955 | 22104 ft | 432 kts | 95° |
| 2026-04-20 17:21 | 48.83786 | 10.31510 | 22599 ft | 438 kts | 95° |
| 2026-04-20 17:21 | 48.83258 | 10.36090 | 23082 ft | 445 kts | 104° |
| 2026-04-20 17:21 | 48.82240 | 10.40555 | 23567 ft | 451 kts | 115° |
| 2026-04-20 17:22 | 48.80737 | 10.44748 | 23983 ft | 454 kts | 126° |
| 2026-04-20 17:22 | 48.78788 | 10.48521 | 24399 ft | 455 kts | 136° |
| 2026-04-20 17:22 | 48.76595 | 10.51997 | 24822 ft | 458 kts | 137° |
| 2026-04-20 17:22 | 48.74383 | 10.55509 | 25251 ft | 462 kts | 137° |
| 2026-04-20 17:23 | 48.72160 | 10.59058 | 25664 ft | 466 kts | 137° |
| 2026-04-20 17:23 | 48.69922 | 10.62641 | 26069 ft | 470 kts | 137° |
| 2026-04-20 17:23 | 48.67667 | 10.66251 | 26470 ft | 474 kts | 137° |
| 2026-04-20 17:23 | 48.65391 | 10.69889 | 26874 ft | 477 kts | 137° |
| 2026-04-20 17:24 | 48.63161 | 10.73637 | 27264 ft | 483 kts | 131° |
| 2026-04-20 17:24 | 48.61272 | 10.77874 | 27660 ft | 490 kts | 120° |
| 2026-04-20 17:24 | 48.59833 | 10.82567 | 28051 ft | 495 kts | 110° |
| 2026-04-20 17:24 | 48.58904 | 10.87573 | 28429 ft | 497 kts | 99° |
| 2026-04-20 17:25 | 48.58511 | 10.92760 | 28760 ft | 497 kts | 89° |
| 2026-04-20 17:25 | 48.58385 | 10.97988 | 29032 ft | 500 kts | 89° |
| 2026-04-20 17:25 | 48.58248 | 11.03242 | 29315 ft | 503 kts | 89° |
| 2026-04-20 17:25 | 48.58096 | 11.08529 | 29600 ft | 506 kts | 89° |
| 2026-04-20 17:26 | 48.57935 | 11.13850 | 29893 ft | 509 kts | 89° |
| 2026-04-20 17:26 | 48.57796 | 11.19204 | 30174 ft | 511 kts | 88° |
| 2026-04-20 17:26 | 48.57689 | 11.24579 | 30416 ft | 513 kts | 88° |
| 2026-04-20 17:26 | 48.57599 | 11.29982 | 30658 ft | 515 kts | 88° |
| 2026-04-20 17:27 | 48.57516 | 11.35391 | 30935 ft | 517 kts | 88° |
| 2026-04-20 17:27 | 48.57428 | 11.40826 | 31058 ft | 517 kts | 88° |
| 2026-04-20 17:27 | 48.57328 | 11.46168 | 31088 ft | 503 kts | 88° |
| 2026-04-20 17:28 | 48.57098 | 11.56465 | 31084 ft | 489 kts | 89° |
| 2026-04-20 17:28 | 48.56034 | 11.66634 | 31077 ft | 492 kts | 101° |
| 2026-04-20 17:29 | 48.54555 | 11.76708 | 31074 ft | 492 kts | 101° |
| 2026-04-20 17:29 | 48.53076 | 11.86786 | 31068 ft | 492 kts | 101° |
| 2026-04-20 17:30 | 48.51591 | 11.96865 | 31056 ft | 492 kts | 101° |
| 2026-04-20 17:30 | 48.50089 | 12.06932 | 31050 ft | 492 kts | 101° |
| 2026-04-20 17:31 | 48.48837 | 12.15295 | 31049 ft | 492 kts | 101° |
| 2026-04-20 17:31 | 48.47331 | 12.25338 | 31058 ft | 492 kts | 101° |
| 2026-04-20 17:32 | 48.45810 | 12.35390 | 31044 ft | 492 kts | 101° |
| 2026-04-20 17:32 | 48.44271 | 12.45437 | 31044 ft | 492 kts | 101° |
| 2026-04-20 17:33 | 48.42722 | 12.55474 | 31044 ft | 492 kts | 101° |
| 2026-04-20 17:33 | 48.41175 | 12.65496 | 31044 ft | 492 kts | 101° |
| 2026-04-20 17:34 | 48.39906 | 12.75567 | 31038 ft | 488 kts | 90° |
| 2026-04-20 17:34 | 48.40040 | 12.85702 | 31036 ft | 484 kts | 82° |
| 2026-04-20 17:35 | 48.40352 | 12.95814 | 31035 ft | 484 kts | 83° |
| 2026-04-20 17:35 | 48.40640 | 13.05924 | 31047 ft | 484 kts | 83° |
| 2026-04-20 17:36 | 48.40919 | 13.15979 | 31042 ft | 484 kts | 83° |
| 2026-04-20 17:36 | 48.41227 | 13.26085 | 31033 ft | 481 kts | 79° |
| 2026-04-20 17:37 | 48.42744 | 13.35712 | 31030 ft | 466 kts | 60° |
| 2026-04-20 17:37 | 48.45357 | 13.44582 | 31029 ft | 463 kts | 58° |
| 2026-04-20 17:38 | 48.47981 | 13.53441 | 31027 ft | 463 kts | 58° |
| 2026-04-20 17:38 | 48.50595 | 13.62323 | 31076 ft | 464 kts | 58° |
| 2026-04-20 17:39 | 48.53200 | 13.71211 | 31063 ft | 463 kts | 58° |
| 2026-04-20 17:39 | 48.55797 | 13.80084 | 31054 ft | 462 kts | 58° |
| 2026-04-20 17:40 | 48.58386 | 13.88955 | 31043 ft | 461 kts | 58° |
| 2026-04-20 17:40 | 48.60963 | 13.97815 | 31035 ft | 461 kts | 58° |
| 2026-04-20 17:41 | 48.63532 | 14.06690 | 31020 ft | 462 kts | 58° |
| 2026-04-20 17:41 | 48.64802 | 14.11083 | 30779 ft | 462 kts | 58° |
| 2026-04-20 17:41 | 48.66084 | 14.15531 | 30578 ft | 459 kts | 60° |
| 2026-04-20 17:41 | 48.67351 | 14.19946 | 30100 ft | 457 kts | 59° |
| 2026-04-20 17:42 | 48.68628 | 14.24405 | 29524 ft | 454 kts | 60° |
| 2026-04-20 17:42 | 48.69873 | 14.28768 | 29030 ft | 450 kts | 60° |
| 2026-04-20 17:42 | 48.70996 | 14.33116 | 28552 ft | 451 kts | 68° |
| 2026-04-20 17:42 | 48.71658 | 14.37766 | 28068 ft | 454 kts | 79° |
| 2026-04-20 17:43 | 48.71771 | 14.42602 | 27628 ft | 454 kts | 91° |
| 2026-04-20 17:43 | 48.71280 | 14.47288 | 27347 ft | 448 kts | 106° |
| 2026-04-20 17:43 | 48.70226 | 14.51661 | 27245 ft | 437 kts | 111° |
| 2026-04-20 17:43 | 48.69135 | 14.55957 | 26711 ft | 438 kts | 111° |
| 2026-04-20 17:44 | 48.68061 | 14.60194 | 26310 ft | 436 kts | 111° |
| 2026-04-20 17:44 | 48.66975 | 14.64451 | 25931 ft | 432 kts | 112° |
| 2026-04-20 17:44 | 48.65889 | 14.68670 | 25560 ft | 429 kts | 112° |
| 2026-04-20 17:44 | 48.64791 | 14.72904 | 25186 ft | 425 kts | 112° |
| 2026-04-20 17:45 | 48.63715 | 14.77045 | 24811 ft | 421 kts | 112° |
| 2026-04-20 17:45 | 48.62649 | 14.81146 | 24441 ft | 418 kts | 112° |
| 2026-04-20 17:45 | 48.61588 | 14.85213 | 24066 ft | 414 kts | 112° |
| 2026-04-20 17:45 | 48.60534 | 14.89246 | 23701 ft | 411 kts | 113° |
| 2026-04-20 17:46 | 48.59487 | 14.93244 | 23382 ft | 408 kts | 113° |
| 2026-04-20 17:46 | 48.58443 | 14.97218 | 23068 ft | 406 kts | 113° |
| 2026-04-20 17:46 | 48.57405 | 15.01162 | 22766 ft | 403 kts | 112° |
| 2026-04-20 17:46 | 48.56372 | 15.05078 | 22459 ft | 400 kts | 113° |
| 2026-04-20 17:47 | 48.55359 | 15.08920 | 22155 ft | 398 kts | 112° |
| 2026-04-20 17:47 | 48.54338 | 15.12788 | 21853 ft | 395 kts | 112° |
| 2026-04-20 17:47 | 48.53323 | 15.16631 | 21557 ft | 393 kts | 112° |
| 2026-04-20 17:47 | 48.52302 | 15.20493 | 21266 ft | 390 kts | 112° |
| 2026-04-20 17:48 | 48.51312 | 15.24232 | 20969 ft | 388 kts | 113° |
| 2026-04-20 17:48 | 48.50308 | 15.27998 | 20655 ft | 386 kts | 113° |
| 2026-04-20 17:48 | 48.49308 | 15.31751 | 20366 ft | 386 kts | 113° |
| 2026-04-20 17:48 | 48.48309 | 15.35494 | 20091 ft | 384 kts | 113° |
| 2026-04-20 17:49 | 48.47314 | 15.39215 | 19807 ft | 382 kts | 113° |
| 2026-04-20 17:49 | 48.46325 | 15.42913 | 19530 ft | 379 kts | 113° |
| 2026-04-20 17:49 | 48.45343 | 15.46589 | 19254 ft | 377 kts | 113° |
| 2026-04-20 17:49 | 48.44365 | 15.50242 | 18981 ft | 375 kts | 113° |
| 2026-04-20 17:50 | 48.43392 | 15.53869 | 18715 ft | 373 kts | 113° |
| 2026-04-20 17:50 | 48.42421 | 15.57475 | 18447 ft | 371 kts | 113° |
| 2026-04-20 17:50 | 48.41452 | 15.61062 | 18163 ft | 369 kts | 113° |
| 2026-04-20 17:50 | 48.40487 | 15.64626 | 17851 ft | 367 kts | 113° |
| 2026-04-20 17:51 | 48.39529 | 15.68166 | 17454 ft | 364 kts | 113° |
| 2026-04-20 17:51 | 48.38578 | 15.71680 | 17075 ft | 361 kts | 113° |
| 2026-04-20 17:51 | 48.37630 | 15.75170 | 16696 ft | 359 kts | 113° |
| 2026-04-20 17:51 | 48.36690 | 15.78632 | 16326 ft | 357 kts | 113° |
| 2026-04-20 17:52 | 48.35753 | 15.82074 | 15963 ft | 354 kts | 113° |
| 2026-04-20 17:52 | 48.34825 | 15.85491 | 15594 ft | 352 kts | 113° |
| 2026-04-20 17:52 | 48.33902 | 15.88887 | 15237 ft | 350 kts | 113° |
| 2026-04-20 17:52 | 48.32983 | 15.92269 | 14882 ft | 348 kts | 113° |
| 2026-04-20 17:53 | 48.32064 | 15.95626 | 14535 ft | 346 kts | 113° |
| 2026-04-20 17:53 | 48.31147 | 15.98959 | 14188 ft | 344 kts | 113° |
| 2026-04-20 17:53 | 48.30233 | 16.02278 | 13845 ft | 343 kts | 113° |
| 2026-04-20 17:53 | 48.29328 | 16.05572 | 13466 ft | 341 kts | 113° |
| 2026-04-20 17:54 | 48.28426 | 16.08853 | 13083 ft | 339 kts | 113° |
| 2026-04-20 17:54 | 48.27529 | 16.12110 | 12708 ft | 337 kts | 113° |
| 2026-04-20 17:54 | 48.26646 | 16.15311 | 12334 ft | 335 kts | 113° |
| 2026-04-20 17:54 | 48.25757 | 16.18536 | 11969 ft | 333 kts | 113° |
| 2026-04-20 17:55 | 48.24870 | 16.21737 | 11604 ft | 332 kts | 113° |
| 2026-04-20 17:55 | 48.23985 | 16.24924 | 11242 ft | 330 kts | 113° |
| 2026-04-20 17:55 | 48.23106 | 16.28094 | 10886 ft | 328 kts | 113° |
| 2026-04-20 17:55 | 48.22230 | 16.31243 | 10532 ft | 327 kts | 113° |
| 2026-04-20 17:56 | 48.21357 | 16.34379 | 10181 ft | 325 kts | 113° |
| 2026-04-20 17:56 | 48.20493 | 16.37488 | 9990 ft | 318 kts | 113° |
| 2026-04-20 17:56 | 48.19655 | 16.40508 | 10006 ft | 313 kts | 113° |
| 2026-04-20 17:56 | 48.18818 | 16.43509 | 10008 ft | 312 kts | 113° |
| 2026-04-20 17:57 | 48.17979 | 16.46509 | 10012 ft | 312 kts | 113° |
| 2026-04-20 17:57 | 48.17141 | 16.49496 | 9966 ft | 310 kts | 113° |
| 2026-04-20 17:57 | 48.16310 | 16.52465 | 9650 ft | 308 kts | 113° |
| 2026-04-20 17:57 | 48.15483 | 16.55415 | 9302 ft | 307 kts | 113° |
| 2026-04-20 17:58 | 48.14659 | 16.58348 | 8942 ft | 305 kts | 113° |
| 2026-04-20 17:58 | 48.13838 | 16.61260 | 8594 ft | 303 kts | 113° |
| 2026-04-20 17:58 | 48.13021 | 16.64154 | 8251 ft | 301 kts | 112° |
| 2026-04-20 17:58 | 48.12198 | 16.67020 | 7932 ft | 299 kts | 116° |
| 2026-04-20 17:59 | 48.11021 | 16.69542 | 7718 ft | 292 kts | 135° |
| 2026-04-20 17:59 | 48.09464 | 16.71394 | 7587 ft | 282 kts | 152° |
| 2026-04-20 17:59 | 48.07695 | 16.72509 | 7464 ft | 271 kts | 167° |
| 2026-04-20 17:59 | 48.05902 | 16.73252 | 7297 ft | 265 kts | 168° |
| 2026-04-20 18:00 | 48.04101 | 16.73998 | 6825 ft | 272 kts | 167° |
| 2026-04-20 18:00 | 48.02262 | 16.74760 | 6319 ft | 276 kts | 167° |
| 2026-04-20 18:00 | 48.00400 | 16.75533 | 5789 ft | 279 kts | 166° |
| 2026-04-20 18:00 | 47.98524 | 16.76312 | 5274 ft | 281 kts | 166° |
| 2026-04-20 18:01 | 47.96621 | 16.77041 | 4759 ft | 282 kts | 172° |
| 2026-04-20 18:01 | 47.94691 | 16.76811 | 4235 ft | 279 kts | 201° |
| 2026-04-20 18:01 | 47.93077 | 16.75305 | 3714 ft | 274 kts | 230° |
| 2026-04-20 18:01 | 47.92126 | 16.72909 | 3213 ft | 268 kts | 253° |
| 2026-04-20 18:02 | 47.91608 | 16.70303 | 3011 ft | 254 kts | 265° |
| 2026-04-20 18:02 | 47.91812 | 16.67864 | 3014 ft | 227 kts | 298° |
| 2026-04-20 18:02 | 47.92763 | 16.66157 | 3034 ft | 211 kts | 327° |
| 2026-04-20 18:02 | 47.94049 | 16.65369 | 3023 ft | 196 kts | 345° |
| 2026-04-20 18:03 | 47.95336 | 16.64833 | 3031 ft | 189 kts | 345° |
| 2026-04-20 18:03 | 47.96585 | 16.64308 | 3063 ft | 179 kts | 345° |
| 2026-04-20 18:03 | 47.97751 | 16.63817 | 2886 ft | 167 kts | 345° |
| 2026-04-20 18:03 | 47.98817 | 16.63368 | 2699 ft | 148 kts | 345° |
| 2026-04-20 18:04 | 47.99749 | 16.62975 | 2508 ft | 133 kts | 346° |
| 2026-04-20 18:04 | 48.00612 | 16.62612 | 2334 ft | 126 kts | 345° |
| 2026-04-20 18:04 | 48.01449 | 16.62261 | 2172 ft | 124 kts | 345° |
| 2026-04-20 18:04 | 48.02274 | 16.61910 | 2039 ft | 123 kts | 346° |
| 2026-04-20 18:05 | 48.03912 | 16.61226 | 1740 ft | 122 kts | 346° |
| 2026-04-20 18:05 | 48.04729 | 16.60883 | 1543 ft | 122 kts | 346° |
| 2026-04-20 18:05 | 48.05554 | 16.60531 | 1362 ft | 123 kts | 345° |
| 2026-04-20 18:06 | 48.06381 | 16.60181 | 1179 ft | 125 kts | 345° |
| 2026-04-20 18:06 | 48.07219 | 16.59827 | 995 ft | 125 kts | 344° |
| 2026-04-20 18:06 | 48.08056 | 16.59472 | 824 ft | 126 kts | 345° |
| 2026-04-20 18:06 | 48.08895 | 16.59117 | 662 ft | 125 kts | 345° |
| 2026-04-20 18:07 | 48.09661 | 16.58799 | 615 ft | 96 kts | 344° |
| 2026-04-20 18:07 | 48.10154 | 16.58589 | 614 ft | 62 kts | 344° |
| 2026-04-20 18:07 | 48.10564 | 16.58417 | 615 ft | 54 kts | 344° |
| 2026-04-20 18:07 | 48.10872 | 16.58287 | 620 ft | 28 kts | 344° |
| 2026-04-20 18:08 | 48.10988 | 16.58186 | 617 ft | 18 kts | 315° |
| 2026-04-20 18:08 | 48.11048 | 16.58053 | 616 ft | 11 kts | 296° |
| 2026-04-20 18:08 | 48.11081 | 16.57953 | 614 ft | 10 kts | 296° |
| 2026-04-20 18:08 | 48.11109 | 16.57865 | 617 ft | 9 kts | 296° |
| 2026-04-20 18:09 | 48.11133 | 16.57791 | 615 ft | 7 kts | 296° |
| 2026-04-20 18:09 | 48.11155 | 16.57722 | 614 ft | 8 kts | 296° |
| 2026-04-20 18:09 | 48.11184 | 16.57632 | 610 ft | 11 kts | 296° |
| 2026-04-20 18:09 | 48.11220 | 16.57523 | 620 ft | 12 kts | 296° |
| 2026-04-20 18:10 | 48.11260 | 16.57403 | 616 ft | 14 kts | 296° |
| 2026-04-20 18:10 | 48.11305 | 16.57264 | 615 ft | 16 kts | 295° |
| 2026-04-20 18:10 | 48.11356 | 16.57106 | 610 ft | 16 kts | 295° |
| 2026-04-20 18:10 | 48.11404 | 16.56959 | 617 ft | 15 kts | 296° |
| 2026-04-20 18:11 | 48.11445 | 16.56833 | 617 ft | 15 kts | 296° |
| 2026-04-20 18:11 | 48.11494 | 16.56681 | 615 ft | 18 kts | 296° |
| 2026-04-20 18:11 | 48.11542 | 16.56534 | 610 ft | 13 kts | 296° |
| 2026-04-20 18:11 | 48.11574 | 16.56436 | 622 ft | 8 kts | 295° |
| 2026-04-20 18:12 | 48.11597 | 16.56366 | 613 ft | 7 kts | 296° |
| 2026-04-20 18:12 | 48.11606 | 16.56339 | 622 ft | 0 kts | 296° |
| 2026-04-20 18:13 | 48.11613 | 16.56318 | 612 ft | 4 kts | 296° |
| 2026-04-20 18:13 | 48.11631 | 16.56261 | 619 ft | 8 kts | 296° |
| 2026-04-20 18:13 | 48.11662 | 16.56170 | 617 ft | 12 kts | 296° |
| 2026-04-20 18:13 | 48.11698 | 16.56057 | 614 ft | 12 kts | 295° |
| 2026-04-20 18:14 | 48.11733 | 16.55951 | 619 ft | 11 kts | 296° |
| 2026-04-20 18:14 | 48.11767 | 16.55851 | 621 ft | 10 kts | 308° |
| 2026-04-20 18:14 | 48.11830 | 16.55855 | 623 ft | 9 kts | 27° |
| 2026-04-20 18:14 | 48.11881 | 16.55891 | 620 ft | 7 kts | 26° |
| 2026-04-20 18:15 | 48.11914 | 16.55893 | 610 ft | 3 kts | 312° |
| 2026-04-20 18:15 | 48.11919 | 16.55865 | 610 ft | 3 kts | 286° |
| 2026-04-20 18:15 | 48.11925 | 16.55840 | 610 ft | 3 kts | 293° |
| 2026-04-20 18:15 | 48.11934 | 16.55813 | 624 ft | 3 kts | 296° |
| 2026-04-20 18:16 | 48.11938 | 16.55799 | 622 ft | 0 kts | 296° |
| 2026-04-20 18:16 | 48.11938 | 16.55798 | 621 ft | 0 kts | 296° |